createdAt,value
2018-08-04T00:00:13.170Z,14.70
2018-08-04T00:02:41.350Z,15.40
2018-08-04T00:05:10.642Z,15.80
2018-08-04T00:07:39.534Z,16.27
2018-08-04T00:10:15.975Z,15.40
2018-08-04T00:12:44.476Z,15.30
2018-08-04T00:15:12.719Z,14.50
2018-08-04T00:17:41.035Z,14.97
2018-08-04T00:20:09.235Z,15.67
2018-08-04T00:22:37.434Z,14.50
2018-08-04T00:25:05.602Z,15.87
2018-08-04T00:27:33.847Z,14.23
2018-08-04T00:30:02.235Z,14.43
2018-08-04T00:32:30.394Z,15.80
2018-08-04T00:34:58.588Z,16.40
2018-08-04T00:37:26.787Z,15.40
2018-08-04T00:39:55.219Z,15.40
2018-08-04T00:42:23.386Z,15.53
2018-08-04T00:44:51.587Z,14.93
2018-08-04T00:47:19.768Z,15.43
2018-08-04T00:49:47.953Z,14.87
2018-08-04T00:52:16.239Z,15.83
2018-08-04T00:54:44.422Z,15.93
2018-08-04T00:57:12.614Z,15.20
2018-08-04T00:59:40.786Z,16.03
2018-08-04T01:02:09.006Z,15.10
2018-08-04T01:04:37.183Z,15.17
2018-08-04T01:07:05.390Z,15.80
2018-08-04T01:09:33.579Z,15.03
2018-08-04T01:12:01.769Z,15.30
2018-08-04T01:14:29.942Z,15.50
2018-08-04T01:16:58.136Z,15.47
2018-08-04T01:19:26.323Z,15.83
2018-08-04T01:21:54.543Z,15.63
2018-08-04T01:24:22.718Z,16.03
2018-08-04T01:26:50.914Z,16.50
2018-08-04T01:29:19.086Z,16.23
2018-08-04T01:31:47.514Z,16.30
2018-08-04T01:34:15.708Z,15.27
2018-08-04T01:36:43.891Z,16.60
2018-08-04T01:39:12.131Z,16.30
2018-08-04T01:41:40.374Z,15.87
2018-08-04T01:44:08.552Z,16.73
2018-08-04T01:46:36.732Z,15.80
2018-08-04T01:49:04.921Z,16.90
2018-08-04T01:51:33.096Z,15.57
2018-08-04T01:54:01.288Z,15.00
2018-08-04T01:56:29.535Z,15.83
2018-08-04T01:58:57.721Z,15.90
2018-08-04T02:01:25.910Z,17.17
2018-08-04T02:03:54.106Z,16.73
2018-08-04T02:06:22.295Z,16.00
2018-08-04T02:08:50.474Z,17.93
2018-08-04T02:11:18.655Z,15.67
2018-08-04T02:13:46.846Z,14.73
2018-08-04T02:16:15.036Z,17.33
2018-08-04T02:18:43.220Z,15.13
2018-08-04T02:21:11.399Z,14.90
2018-08-04T02:23:39.570Z,16.40
2018-08-04T02:26:07.746Z,14.47
2018-08-04T02:28:35.921Z,15.00
2018-08-04T02:31:04.100Z,16.20
2018-08-04T02:33:32.279Z,16.40
2018-08-04T02:36:00.495Z,15.13
2018-08-04T02:38:28.637Z,15.97
2018-08-04T02:40:56.866Z,16.10
2018-08-04T02:43:25.043Z,15.80
2018-08-04T02:45:53.770Z,15.60
2018-08-04T02:48:21.955Z,16.97
2018-08-04T02:50:50.142Z,14.67
2018-08-04T02:53:18.334Z,15.40
2018-08-04T02:55:46.522Z,15.27
2018-08-04T02:58:14.716Z,16.00
2018-08-04T03:00:42.903Z,14.87
2018-08-04T03:03:11.085Z,14.80
2018-08-04T03:05:39.263Z,15.17
2018-08-04T03:08:07.663Z,14.73
2018-08-04T03:10:35.895Z,14.60
2018-08-04T03:13:04.102Z,15.27
2018-08-04T03:15:32.303Z,15.57
2018-08-04T03:18:00.501Z,15.33
2018-08-04T03:20:28.671Z,15.53
2018-08-04T03:22:56.898Z,14.67
2018-08-04T03:25:25.067Z,15.47
2018-08-04T03:27:53.247Z,14.73
2018-08-04T03:30:21.423Z,15.00
2018-08-04T03:32:49.602Z,14.30
2018-08-04T03:35:17.826Z,14.50
2018-08-04T03:37:45.998Z,15.07
2018-08-04T03:40:14.183Z,14.83
2018-08-04T03:42:42.363Z,14.63
2018-08-04T03:45:10.543Z,13.80
2018-08-04T03:47:38.718Z,14.43
2018-08-04T03:50:07.186Z,14.17
2018-08-04T03:52:35.435Z,14.10
2018-08-04T03:55:03.631Z,13.53
2018-08-04T03:57:31.845Z,13.60
2018-08-04T04:00:00.051Z,14.50
2018-08-04T04:02:28.227Z,13.87
2018-08-04T04:04:56.410Z,14.30
2018-08-04T04:07:24.585Z,13.57
2018-08-04T04:09:52.759Z,13.80
2018-08-04T04:12:20.931Z,14.80
2018-08-04T04:14:49.199Z,13.40
2018-08-04T04:17:17.406Z,13.00
2018-08-04T04:19:45.595Z,13.77
2018-08-04T04:22:13.815Z,12.07
2018-08-04T04:24:41.987Z,12.63
2018-08-04T04:27:10.172Z,11.80
2018-08-04T04:29:38.355Z,11.70
2018-08-04T04:32:06.834Z,12.43
2018-08-04T04:34:35.153Z,12.27
2018-08-04T04:37:03.323Z,11.97
2018-08-04T04:39:31.518Z,11.77
2018-08-04T04:41:59.690Z,12.20
2018-08-04T04:44:27.859Z,12.80
2018-08-04T04:46:56.036Z,11.73
2018-08-04T04:49:24.202Z,12.30
2018-08-04T04:51:52.381Z,12.27
2018-08-04T04:54:20.650Z,12.50
2018-08-04T04:56:48.853Z,12.57
2018-08-04T04:59:17.027Z,11.87
2018-08-04T05:01:45.258Z,13.20
2018-08-04T05:04:13.452Z,11.60
2018-08-04T05:06:41.624Z,12.40
2018-08-04T05:09:09.915Z,13.43
2018-08-04T05:11:38.111Z,12.77
2018-08-04T05:14:06.310Z,12.57
2018-08-04T05:16:34.502Z,12.37
2018-08-04T05:19:02.691Z,12.33
2018-08-04T05:21:30.880Z,11.90
2018-08-04T05:23:59.058Z,13.57
2018-08-04T05:26:27.249Z,13.03
2018-08-04T05:28:55.428Z,12.57
2018-08-04T05:31:23.621Z,12.50
2018-08-04T05:33:52.218Z,12.60
2018-08-04T05:36:20.399Z,12.33
2018-08-04T05:38:48.578Z,12.83
2018-08-04T05:41:16.758Z,12.30
2018-08-04T05:43:44.971Z,12.73
2018-08-04T05:46:13.142Z,14.00
2018-08-04T05:48:41.414Z,11.63
2018-08-04T05:51:10.478Z,12.57
2018-08-04T05:53:38.694Z,12.73
2018-08-04T05:56:07.814Z,10.40
2018-08-04T05:58:36.177Z,12.43
2018-08-04T06:01:04.462Z,11.90
2018-08-04T06:03:32.639Z,13.17
2018-08-04T06:06:00.866Z,12.40
2018-08-04T06:08:29.042Z,12.73
2018-08-04T06:10:57.225Z,12.20
2018-08-04T06:13:25.427Z,13.10
2018-08-04T06:15:53.601Z,12.43
2018-08-04T06:18:21.854Z,12.63
2018-08-04T06:20:50.161Z,12.97
2018-08-04T06:23:18.396Z,11.93
2018-08-04T06:25:46.726Z,11.30
2018-08-04T06:28:14.906Z,12.13
2018-08-04T06:30:43.202Z,12.00
2018-08-04T06:33:11.437Z,12.07
2018-08-04T06:35:39.706Z,11.57
2018-08-04T06:38:07.899Z,11.50
2018-08-04T06:40:36.091Z,12.40
2018-08-04T06:43:04.286Z,11.40
2018-08-04T06:45:32.483Z,12.63
2018-08-04T06:48:00.658Z,11.93
2018-08-04T06:50:28.859Z,12.10
2018-08-04T06:52:57.112Z,12.33
2018-08-04T06:55:25.252Z,11.60
2018-08-04T06:57:53.429Z,13.83
2018-08-04T07:00:21.606Z,12.20
2018-08-04T07:02:49.798Z,12.67
2018-08-04T07:05:17.970Z,13.13
2018-08-04T07:07:46.910Z,13.23
2018-08-04T07:10:15.081Z,11.73
2018-08-04T07:12:43.418Z,12.13
2018-08-04T07:15:11.599Z,13.40
2018-08-04T07:17:39.783Z,13.77
2018-08-04T07:20:07.991Z,13.60
2018-08-04T07:22:36.227Z,11.70
2018-08-04T07:25:04.554Z,12.93
2018-08-04T07:27:32.735Z,13.53
2018-08-04T07:30:00.917Z,13.67
2018-08-04T07:32:29.131Z,12.10
2018-08-04T07:34:57.314Z,13.77
2018-08-04T07:37:25.502Z,12.83
2018-08-04T07:39:53.701Z,14.30
2018-08-04T07:42:21.870Z,14.73
2018-08-04T07:44:50.088Z,13.50
2018-08-04T07:47:18.326Z,13.57
2018-08-04T07:49:46.486Z,13.37
2018-08-04T07:52:14.676Z,14.03
2018-08-04T07:54:43.007Z,12.90
2018-08-04T07:57:11.174Z,14.40
2018-08-04T07:59:39.343Z,14.40
2018-08-04T08:02:07.574Z,13.30
2018-08-04T08:04:35.747Z,15.03
2018-08-04T08:07:03.943Z,14.70
2018-08-04T08:09:32.110Z,14.27
2018-08-04T08:12:00.316Z,12.97
2018-08-04T08:14:28.513Z,13.93
2018-08-04T08:16:56.718Z,13.80
2018-08-04T08:19:24.979Z,14.83
2018-08-04T08:21:53.172Z,13.83
2018-08-04T08:24:21.397Z,14.03
2018-08-04T08:26:49.611Z,11.87
2018-08-04T08:29:17.831Z,12.70
2018-08-04T08:31:46.045Z,12.80
2018-08-04T08:34:14.256Z,11.90
2018-08-04T08:36:42.534Z,11.67
2018-08-04T08:39:10.752Z,12.73
2018-08-04T08:41:38.994Z,12.67
2018-08-04T08:44:07.218Z,12.50
2018-08-04T08:46:35.445Z,13.13
2018-08-04T08:49:03.780Z,11.90
2018-08-04T08:51:31.980Z,13.23
2018-08-04T08:54:00.288Z,11.87
2018-08-04T08:56:28.365Z,11.60
2018-08-04T08:58:56.550Z,11.90
2018-08-04T09:01:24.861Z,12.50
2018-08-04T09:03:53.435Z,13.07
2018-08-04T09:06:21.633Z,13.63
2018-08-04T09:08:49.807Z,12.10
2018-08-04T09:11:18.007Z,12.73
2018-08-04T09:13:46.494Z,12.37
2018-08-04T09:16:14.695Z,13.17
2018-08-04T09:18:43.011Z,12.30
2018-08-04T09:21:11.275Z,12.57
2018-08-04T09:23:39.503Z,11.83
2018-08-04T09:26:07.747Z,11.50
2018-08-04T09:28:35.942Z,10.80
2018-08-04T09:31:04.124Z,11.90
2018-08-04T09:33:32.416Z,10.43
2018-08-04T09:36:00.628Z,10.47
2018-08-04T09:38:28.905Z,12.50
2018-08-04T09:40:57.209Z,11.13
2018-08-04T09:43:25.408Z,11.43
2018-08-04T09:45:53.638Z,11.77
2018-08-04T09:48:21.858Z,11.53
2018-08-04T09:50:50.079Z,11.43
2018-08-04T09:53:18.303Z,11.07
2018-08-04T09:55:46.568Z,11.60
2018-08-04T09:58:14.718Z,11.37
2018-08-04T10:00:48.240Z,12.77
2018-08-04T10:03:16.427Z,11.13
2018-08-04T10:05:44.719Z,12.57
2018-08-04T10:08:12.925Z,10.93
2018-08-04T10:10:41.146Z,11.70
2018-08-04T10:13:09.342Z,11.57
2018-08-04T10:15:37.528Z,11.40
2018-08-04T10:18:05.982Z,12.23
2018-08-04T10:20:34.227Z,10.80
2018-08-04T10:23:02.410Z,11.13
2018-08-04T10:25:30.582Z,11.43
2018-08-04T10:27:58.830Z,11.57
2018-08-04T10:30:27.035Z,10.30
2018-08-04T10:32:55.269Z,11.97
2018-08-04T10:35:23.483Z,12.60
2018-08-04T10:37:51.723Z,12.37
2018-08-04T10:40:19.960Z,11.33
2018-08-04T10:42:48.242Z,11.90
2018-08-04T10:45:16.535Z,10.40
2018-08-04T10:47:44.886Z,11.03
2018-08-04T10:50:13.167Z,10.80
2018-08-04T10:52:41.467Z,11.43
2018-08-04T10:55:09.774Z,11.03
2018-08-04T10:57:38.035Z,11.23
2018-08-04T11:00:08.023Z,11.77
2018-08-04T11:02:36.282Z,11.70
2018-08-04T11:05:04.928Z,11.70
2018-08-04T11:07:33.110Z,10.43
2018-08-04T11:10:01.323Z,11.87
2018-08-04T11:12:30.677Z,10.57
2018-08-04T11:14:58.830Z,10.10
2018-08-04T11:17:27.190Z,10.47
2018-08-04T11:19:56.353Z,10.80
2018-08-04T11:22:24.569Z,11.63
2018-08-04T11:24:52.934Z,11.00
2018-08-04T11:27:21.159Z,11.10
2018-08-04T11:29:49.378Z,11.50
2018-08-04T11:32:17.593Z,11.60
2018-08-04T11:34:45.975Z,11.77
2018-08-04T11:37:14.192Z,12.03
2018-08-04T11:39:42.416Z,11.13
2018-08-04T11:42:10.702Z,11.80
2018-08-04T11:44:39.176Z,12.50
2018-08-04T11:47:07.463Z,11.40
2018-08-04T11:49:35.750Z,11.23
2018-08-04T11:52:04.046Z,11.90
2018-08-04T11:54:32.249Z,11.70
2018-08-04T11:57:00.498Z,11.47
2018-08-04T11:59:28.766Z,12.47
2018-08-04T12:01:57.038Z,11.70
2018-08-04T12:04:25.225Z,11.87
2018-08-04T12:06:53.566Z,11.80
2018-08-04T12:09:21.842Z,12.67
2018-08-04T12:11:50.063Z,11.50
2018-08-04T12:14:18.283Z,12.90
2018-08-04T12:16:46.577Z,11.20
2018-08-04T12:19:14.895Z,11.40
2018-08-04T12:21:43.157Z,12.67
2018-08-04T12:24:11.470Z,11.40
2018-08-04T12:26:39.755Z,11.13
2018-08-04T12:29:08.031Z,12.03
2018-08-04T12:31:36.340Z,12.20
2018-08-04T12:34:04.650Z,11.37
2018-08-04T12:36:32.890Z,10.87
2018-08-04T12:39:01.158Z,10.97
2018-08-04T12:41:29.444Z,11.33
2018-08-04T12:43:57.654Z,11.70
2018-08-04T12:46:25.892Z,11.97
2018-08-04T12:48:54.159Z,11.33
2018-08-04T12:51:22.370Z,11.30
2018-08-04T12:53:50.575Z,11.77
2018-08-04T12:56:18.774Z,11.53
2018-08-04T12:58:47.022Z,11.83
2018-08-04T13:01:15.314Z,11.90
2018-08-04T13:03:43.546Z,11.20
2018-08-04T13:06:11.791Z,11.07
2018-08-04T13:08:39.977Z,12.00
2018-08-04T13:11:08.194Z,11.53
2018-08-04T13:13:36.522Z,12.00
2018-08-04T13:16:04.797Z,11.00
2018-08-04T13:18:33.026Z,11.73
2018-08-04T13:21:01.261Z,11.27
2018-08-04T13:23:29.568Z,10.93
2018-08-04T13:25:57.860Z,11.17
2018-08-04T13:28:26.058Z,10.73
2018-08-04T13:30:54.339Z,10.77
2018-08-04T13:33:22.631Z,11.03
2018-08-04T13:35:50.842Z,10.43
2018-08-04T13:38:19.132Z,10.87
2018-08-04T13:40:47.410Z,11.00
2018-08-04T13:43:15.719Z,10.50
2018-08-04T13:45:44.009Z,10.77
2018-08-04T13:48:12.206Z,11.50
2018-08-04T13:50:40.438Z,10.20
2018-08-04T13:53:08.686Z,10.47
2018-08-04T13:55:36.930Z,11.20
2018-08-04T13:58:05.562Z,10.87
2018-08-04T14:00:33.793Z,10.77
2018-08-04T14:03:01.975Z,10.07
2018-08-04T14:05:30.251Z,10.80
2018-08-04T14:07:58.508Z,10.60
2018-08-04T14:10:26.718Z,11.30
2018-08-04T14:12:54.934Z,10.83
2018-08-04T14:15:23.212Z,10.10
2018-08-04T14:17:51.522Z,11.53
2018-08-04T14:20:19.759Z,10.80
2018-08-04T14:22:48.053Z,10.80
2018-08-04T14:25:16.241Z,10.20
2018-08-04T14:27:44.472Z,9.60
2018-08-04T14:30:12.731Z,10.57
2018-08-04T14:32:41.049Z,10.67
2018-08-04T14:35:09.324Z,10.27
2018-08-04T14:37:37.567Z,10.73
2018-08-04T14:40:05.810Z,9.97
2018-08-04T14:42:34.034Z,9.97
2018-08-04T14:45:02.260Z,10.57
2018-08-04T14:47:30.521Z,10.20
2018-08-04T14:49:58.754Z,10.33
2018-08-04T14:52:26.993Z,9.63
2018-08-04T14:54:55.314Z,10.20
2018-08-04T14:57:23.490Z,10.40
2018-08-04T14:59:51.746Z,10.63
2018-08-04T15:02:19.934Z,11.13
2018-08-04T15:04:48.259Z,11.00
2018-08-04T15:07:16.431Z,10.87
2018-08-04T15:09:44.612Z,10.70
2018-08-04T15:12:12.822Z,10.53
2018-08-04T15:14:41.093Z,10.90
2018-08-04T15:17:09.344Z,10.43
2018-08-04T15:19:37.646Z,10.27
2018-08-04T15:22:05.973Z,11.00
2018-08-04T15:24:34.211Z,10.60
2018-08-04T15:27:02.466Z,10.83
2018-08-04T15:29:30.724Z,11.00
2018-08-04T15:31:59.018Z,11.53
2018-08-04T15:34:27.264Z,10.93
2018-08-04T15:36:55.479Z,10.70
2018-08-04T15:39:23.670Z,10.97
2018-08-04T15:41:52.004Z,10.53
2018-08-04T15:44:20.242Z,11.93
2018-08-04T15:46:48.453Z,10.73
2018-08-04T15:49:16.651Z,10.70
2018-08-04T15:51:44.859Z,10.47
2018-08-04T15:54:13.062Z,10.10
2018-08-04T15:56:41.311Z,10.00
2018-08-04T15:59:09.580Z,10.40
2018-08-04T16:01:37.832Z,10.70
2018-08-04T16:04:06.118Z,10.93
2018-08-04T16:06:34.403Z,10.87
2018-08-04T16:09:02.654Z,11.30
2018-08-04T16:11:30.980Z,10.70
2018-08-04T16:13:59.227Z,10.20
2018-08-04T16:16:27.484Z,9.43
2018-08-04T16:18:55.833Z,9.90
2018-08-04T16:21:24.056Z,9.80
2018-08-04T16:23:52.395Z,10.67
2018-08-04T16:26:20.618Z,10.00
2018-08-04T16:28:48.895Z,10.40
2018-08-04T16:31:17.082Z,9.90
2018-08-04T16:33:45.324Z,10.70
2018-08-04T16:36:13.513Z,10.17
2018-08-04T16:38:41.779Z,10.13
2018-08-04T16:41:10.002Z,10.90
2018-08-04T16:43:38.286Z,10.40
2018-08-04T16:46:06.882Z,10.77
2018-08-04T16:48:35.075Z,10.00
2018-08-04T16:51:03.340Z,10.63
2018-08-04T16:53:31.683Z,10.20
2018-08-04T16:55:59.855Z,9.60
2018-08-04T16:58:28.011Z,10.57
2018-08-04T17:00:56.250Z,9.63
2018-08-04T17:03:24.545Z,10.53
2018-08-04T17:05:53.034Z,10.73
2018-08-04T17:08:21.333Z,10.33
2018-08-04T17:10:49.557Z,11.97
2018-08-04T17:13:17.842Z,10.87
2018-08-04T17:15:46.120Z,10.80
2018-08-04T17:18:14.508Z,11.50
2018-08-04T17:20:42.626Z,10.80
2018-08-04T17:23:10.798Z,10.10
2018-08-04T17:25:39.140Z,11.23
2018-08-04T17:28:07.448Z,10.70
2018-08-04T17:30:35.643Z,9.67
2018-08-04T17:33:03.838Z,10.43
2018-08-04T17:35:32.111Z,10.20
2018-08-04T17:38:00.302Z,9.57
2018-08-04T17:40:28.596Z,10.00
2018-08-04T17:42:56.850Z,10.70
2018-08-04T17:45:25.131Z,9.83
2018-08-04T17:47:53.420Z,10.70
2018-08-04T17:50:21.833Z,11.07
2018-08-04T17:52:50.549Z,10.13
2018-08-04T17:55:18.830Z,10.43
2018-08-04T17:57:47.041Z,11.47
2018-08-04T18:00:15.395Z,12.00
2018-08-04T18:02:43.590Z,10.13
2018-08-04T18:05:11.872Z,9.93
2018-08-04T18:07:40.088Z,10.80
2018-08-04T18:10:08.381Z,9.83
2018-08-04T18:12:36.688Z,11.10
2018-08-04T18:15:06.211Z,9.90
2018-08-04T18:17:34.491Z,10.37
2018-08-04T18:20:02.744Z,11.03
2018-08-04T18:22:31.017Z,9.50
2018-08-04T18:24:59.254Z,10.67
2018-08-04T18:27:27.515Z,9.67
2018-08-04T18:29:55.798Z,10.27
2018-08-04T18:32:24.042Z,9.80
2018-08-04T18:34:52.454Z,10.17
2018-08-04T18:37:20.741Z,10.50
2018-08-04T18:39:48.972Z,9.93
2018-08-04T18:42:17.247Z,10.80
2018-08-04T18:44:45.548Z,10.27
2018-08-04T18:47:13.789Z,10.33
2018-08-04T18:49:41.990Z,10.30
2018-08-04T18:52:10.311Z,9.93
2018-08-04T18:54:38.558Z,9.60
2018-08-04T18:57:06.798Z,10.40
2018-08-04T18:59:35.657Z,10.43
2018-08-04T19:02:03.934Z,10.87
2018-08-04T19:04:32.166Z,10.70
2018-08-04T19:07:00.482Z,10.37
2018-08-04T19:09:28.848Z,10.63
2018-08-04T19:11:57.075Z,10.80
2018-08-04T19:14:25.316Z,10.00
2018-08-04T19:16:53.550Z,9.57
2018-08-04T19:19:21.848Z,10.43
2018-08-04T19:21:50.175Z,11.13
2018-08-04T19:24:18.458Z,11.07
2018-08-04T19:26:46.672Z,11.27
2018-08-04T19:29:14.964Z,11.20
2018-08-04T19:31:43.278Z,11.77
2018-08-04T19:34:11.534Z,11.80
2018-08-04T19:36:39.754Z,11.47
2018-08-04T19:39:09.326Z,11.70
2018-08-04T19:41:37.618Z,11.37
2018-08-04T19:44:06.198Z,12.60
2018-08-04T19:46:34.486Z,11.40
2018-08-04T19:49:02.702Z,11.60
2018-08-04T19:51:31.143Z,11.73
2018-08-04T19:53:59.369Z,11.70
2018-08-04T19:56:27.683Z,11.70
2018-08-04T19:58:55.962Z,10.57
2018-08-04T20:01:24.249Z,11.70
2018-08-04T20:03:52.502Z,10.90
2018-08-04T20:06:20.730Z,12.07
2018-08-04T20:08:48.985Z,11.60
2018-08-04T20:11:17.303Z,12.20
2018-08-04T20:13:45.643Z,12.13
2018-08-04T20:16:13.917Z,12.30
2018-08-04T20:18:42.106Z,12.37
2018-08-04T20:21:10.366Z,11.90
2018-08-04T20:23:38.562Z,13.00
2018-08-04T20:26:06.783Z,11.93
2018-08-04T20:28:34.978Z,12.90
2018-08-04T20:31:03.207Z,12.10
2018-08-04T20:33:31.482Z,13.10
2018-08-04T20:35:59.694Z,11.97
2018-08-04T20:38:27.863Z,11.33
2018-08-04T20:40:56.038Z,12.70
2018-08-04T20:43:24.246Z,11.00
2018-08-04T20:45:52.423Z,10.67
2018-08-04T20:48:20.601Z,12.03
2018-08-04T20:50:48.819Z,11.17
2018-08-04T20:53:16.990Z,12.10
2018-08-04T20:55:45.190Z,11.73
2018-08-04T20:58:13.424Z,13.17
2018-08-04T21:00:42.574Z,10.87
2018-08-04T21:03:12.547Z,11.77
2018-08-04T21:05:40.850Z,12.27
2018-08-04T21:08:09.022Z,12.30
2018-08-04T21:10:37.199Z,12.37
2018-08-04T21:13:05.386Z,13.13
2018-08-04T21:15:33.590Z,14.23
2018-08-04T21:18:01.871Z,12.97
2018-08-04T21:20:30.047Z,13.10
2018-08-04T21:22:58.235Z,12.80
2018-08-04T21:25:26.416Z,12.07
2018-08-04T21:27:54.632Z,13.00
2018-08-04T21:30:22.806Z,12.43
2018-08-04T21:32:50.994Z,12.63
2018-08-04T21:35:19.171Z,12.90
2018-08-04T21:37:47.351Z,12.90
2018-08-04T21:40:15.531Z,11.13
2018-08-04T21:42:43.777Z,12.60
2018-08-04T21:45:11.954Z,11.80
2018-08-04T21:47:40.219Z,12.57
2018-08-04T21:50:08.407Z,11.27
2018-08-04T21:52:36.595Z,13.43
2018-08-04T21:55:04.875Z,12.67
2018-08-04T21:57:33.277Z,13.03
2018-08-04T22:00:01.472Z,11.70
2018-08-04T22:02:29.669Z,12.03
2018-08-04T22:04:57.873Z,11.63
2018-08-04T22:07:47.403Z,12.30
2018-08-04T22:10:15.985Z,13.53
2018-08-04T22:12:44.268Z,11.60
2018-08-04T22:15:13.662Z,12.70
2018-08-04T22:17:41.902Z,13.47
2018-08-04T22:20:11.967Z,12.53
2018-08-04T22:22:40.544Z,13.43
2018-08-04T22:25:10.875Z,13.63
2018-08-04T22:27:39.419Z,12.43
2018-08-04T22:30:08.967Z,13.77
2018-08-04T22:32:37.142Z,12.00
2018-08-04T22:35:05.819Z,12.00
2018-08-04T22:37:34.035Z,11.93
2018-08-04T22:40:02.482Z,12.40
2018-08-04T22:42:30.662Z,12.83
2018-08-04T22:45:03.439Z,13.10
2018-08-04T22:47:31.607Z,11.80
2018-08-04T22:49:59.805Z,12.27
2018-08-04T22:52:27.978Z,13.23
2018-08-04T22:54:56.158Z,12.90
2018-08-04T22:57:24.330Z,13.33
2018-08-04T22:59:52.504Z,12.97
2018-08-04T23:02:20.675Z,13.67
2018-08-04T23:04:48.881Z,14.03
2018-08-04T23:07:17.078Z,12.90
2018-08-04T23:09:45.270Z,12.27
2018-08-04T23:12:13.466Z,12.37
2018-08-04T23:14:41.652Z,12.60
2018-08-04T23:17:09.837Z,12.33
2018-08-04T23:19:38.027Z,13.13
2018-08-04T23:22:06.263Z,13.90
2018-08-04T23:24:34.446Z,13.97
2018-08-04T23:27:02.629Z,13.07
2018-08-04T23:29:30.814Z,14.37
2018-08-04T23:31:59.003Z,13.33
2018-08-04T23:34:27.180Z,12.87
2018-08-04T23:36:55.357Z,12.33
2018-08-04T23:39:23.521Z,13.57
2018-08-04T23:41:51.697Z,11.77
2018-08-04T23:44:19.885Z,11.47
2018-08-04T23:46:48.068Z,13.00
2018-08-04T23:49:16.242Z,12.50
2018-08-04T23:51:44.434Z,14.30
2018-08-04T23:54:12.626Z,13.37
2018-08-04T23:56:40.846Z,12.70
2018-08-04T23:59:09.028Z,14.10
